sensor_id;sensor_type;location;lat;lon;timestamp;P1;durP1;ratioP1;P2;durP2;ratioP2
23718;SDS011;43322;52.230;5.702;2023-04-01T00:01:27;11.40;;;10.20;;
23718;SDS011;43322;52.230;5.702;2023-04-01T00:03:54;11.10;;;9.77;;
23718;SDS011;43322;52.230;5.702;2023-04-01T00:06:21;13.27;;;10.50;;
23718;SDS011;43322;52.230;5.702;2023-04-01T00:08:48;12.82;;;10.55;;
23718;SDS011;43322;52.230;5.702;2023-04-01T00:11:15;11.98;;;10.27;;
23718;SDS011;43322;52.230;5.702;2023-04-01T00:13:44;12.35;;;11.05;;
23718;SDS011;43322;52.230;5.702;2023-04-01T00:16:12;11.95;;;10.85;;
23718;SDS011;43322;52.230;5.702;2023-04-01T00:18:39;15.40;;;11.55;;
23718;SDS011;43322;52.230;5.702;2023-04-01T00:21:06;15.82;;;12.68;;
23718;SDS011;43322;52.230;5.702;2023-04-01T00:23:33;15.50;;;12.82;;
23718;SDS011;43322;52.230;5.702;2023-04-01T00:26:00;17.95;;;12.77;;
23718;SDS011;43322;52.230;5.702;2023-04-01T00:28:27;20.05;;;13.02;;
23718;SDS011;43322;52.230;5.702;2023-04-01T00:30:56;15.88;;;12.63;;
23718;SDS011;43322;52.230;5.702;2023-04-01T00:33:22;15.93;;;13.10;;
23718;SDS011;43322;52.230;5.702;2023-04-01T00:35:49;17.38;;;13.35;;
23718;SDS011;43322;52.230;5.702;2023-04-01T00:38:16;17.27;;;12.88;;
23718;SDS011;43322;52.230;5.702;2023-04-01T00:40:44;20.42;;;12.82;;
23718;SDS011;43322;52.230;5.702;2023-04-01T00:43:12;21.77;;;13.50;;
23718;SDS011;43322;52.230;5.702;2023-04-01T00:45:42;18.83;;;13.32;;
23718;SDS011;43322;52.230;5.702;2023-04-01T00:48:13;24.02;;;13.70;;
23718;SDS011;43322;52.230;5.702;2023-04-01T00:50:42;18.58;;;13.65;;
23718;SDS011;43322;52.230;5.702;2023-04-01T00:53:14;19.63;;;13.52;;
23718;SDS011;43322;52.230;5.702;2023-04-01T00:55:46;20.08;;;13.70;;
23718;SDS011;43322;52.230;5.702;2023-04-01T00:58:17;20.30;;;13.95;;
23718;SDS011;43322;52.230;5.702;2023-04-01T01:00:47;19.10;;;13.73;;
23718;SDS011;43322;52.230;5.702;2023-04-01T01:03:18;21.05;;;14.13;;
23718;SDS011;43322;52.230;5.702;2023-04-01T01:05:52;21.17;;;15.00;;
23718;SDS011;43322;52.230;5.702;2023-04-01T01:08:37;23.25;;;14.90;;
23718;SDS011;43322;52.230;5.702;2023-04-01T01:11:14;19.40;;;14.55;;
23718;SDS011;43322;52.230;5.702;2023-04-01T01:13:49;18.35;;;14.20;;
23718;SDS011;43322;52.230;5.702;2023-04-01T01:16:25;19.67;;;13.90;;
23718;SDS011;43322;52.230;5.702;2023-04-01T01:18:56;19.25;;;14.27;;
23718;SDS011;43322;52.230;5.702;2023-04-01T01:24:34;20.30;;;14.75;;
23718;SDS011;43322;52.230;5.702;2023-04-01T01:27:17;21.27;;;15.07;;
23718;SDS011;43322;52.230;5.702;2023-04-01T01:33:01;22.58;;;15.73;;
23718;SDS011;43322;52.230;5.702;2023-04-01T01:35:43;28.00;;;15.65;;
23718;SDS011;43322;52.230;5.702;2023-04-01T01:38:13;28.80;;;14.90;;
23718;SDS011;43322;52.230;5.702;2023-04-01T01:40:43;25.00;;;15.32;;
23718;SDS011;43322;52.230;5.702;2023-04-01T01:43:13;27.33;;;16.02;;
23718;SDS011;43322;52.230;5.702;2023-04-01T01:45:44;30.45;;;16.42;;
23718;SDS011;43322;52.230;5.702;2023-04-01T01:48:15;24.60;;;14.98;;
23718;SDS011;43322;52.230;5.702;2023-04-01T01:50:44;23.83;;;14.45;;
23718;SDS011;43322;52.230;5.702;2023-04-01T01:53:13;26.35;;;16.17;;
23718;SDS011;43322;52.230;5.702;2023-04-01T01:55:41;26.38;;;16.08;;
23718;SDS011;43322;52.230;5.702;2023-04-01T01:58:11;27.20;;;16.63;;
23718;SDS011;43322;52.230;5.702;2023-04-01T02:00:41;28.88;;;16.05;;
23718;SDS011;43322;52.230;5.702;2023-04-01T02:03:11;30.33;;;17.52;;
23718;SDS011;43322;52.230;5.702;2023-04-01T02:05:39;27.25;;;16.50;;
23718;SDS011;43322;52.230;5.702;2023-04-01T02:08:09;29.52;;;16.02;;
23718;SDS011;43322;52.230;5.702;2023-04-01T02:10:41;26.48;;;16.13;;
23718;SDS011;43322;52.230;5.702;2023-04-01T02:13:13;29.27;;;16.88;;
23718;SDS011;43322;52.230;5.702;2023-04-01T02:15:46;25.38;;;16.85;;
23718;SDS011;43322;52.230;5.702;2023-04-01T02:18:15;25.25;;;16.95;;
23718;SDS011;43322;52.230;5.702;2023-04-01T02:20:44;27.60;;;16.08;;
23718;SDS011;43322;52.230;5.702;2023-04-01T02:23:13;29.83;;;16.77;;
23718;SDS011;43322;52.230;5.702;2023-04-01T02:25:40;29.02;;;17.77;;
23718;SDS011;43322;52.230;5.702;2023-04-01T02:28:09;27.55;;;16.90;;
23718;SDS011;43322;52.230;5.702;2023-04-01T02:30:38;29.50;;;16.60;;
23718;SDS011;43322;52.230;5.702;2023-04-01T02:33:08;22.75;;;14.18;;
23718;SDS011;43322;52.230;5.702;2023-04-01T02:35:35;18.52;;;12.98;;
23718;SDS011;43322;52.230;5.702;2023-04-01T02:38:02;20.20;;;13.15;;
23718;SDS011;43322;52.230;5.702;2023-04-01T02:40:41;19.05;;;13.02;;
23718;SDS011;43322;52.230;5.702;2023-04-01T02:43:09;14.85;;;11.82;;
23718;SDS011;43322;52.230;5.702;2023-04-01T02:45:36;19.75;;;13.77;;
23718;SDS011;43322;52.230;5.702;2023-04-01T02:48:04;19.02;;;13.57;;
23718;SDS011;43322;52.230;5.702;2023-04-01T02:50:31;15.80;;;12.23;;
23718;SDS011;43322;52.230;5.702;2023-04-01T02:52:58;16.20;;;11.00;;
23718;SDS011;43322;52.230;5.702;2023-04-01T02:55:24;13.68;;;11.13;;
23718;SDS011;43322;52.230;5.702;2023-04-01T02:57:52;12.48;;;10.23;;
23718;SDS011;43322;52.230;5.702;2023-04-01T03:00:19;12.23;;;8.98;;
23718;SDS011;43322;52.230;5.702;2023-04-01T03:02:46;12.25;;;9.85;;
23718;SDS011;43322;52.230;5.702;2023-04-01T03:05:13;10.18;;;8.82;;
23718;SDS011;43322;52.230;5.702;2023-04-01T03:07:39;10.68;;;8.85;;
23718;SDS011;43322;52.230;5.702;2023-04-01T03:10:07;9.45;;;8.65;;
23718;SDS011;43322;52.230;5.702;2023-04-01T03:12:34;10.30;;;8.93;;
23718;SDS011;43322;52.230;5.702;2023-04-01T03:15:02;15.57;;;8.93;;
23718;SDS011;43322;52.230;5.702;2023-04-01T03:17:30;12.52;;;9.35;;
23718;SDS011;43322;52.230;5.702;2023-04-01T03:19:56;13.45;;;10.18;;
23718;SDS011;43322;52.230;5.702;2023-04-01T03:22:23;10.80;;;9.70;;
23718;SDS011;43322;52.230;5.702;2023-04-01T03:24:50;10.43;;;9.38;;
23718;SDS011;43322;52.230;5.702;2023-04-01T03:27:16;11.45;;;9.75;;
23718;SDS011;43322;52.230;5.702;2023-04-01T03:29:43;12.55;;;9.45;;
23718;SDS011;43322;52.230;5.702;2023-04-01T03:32:11;10.40;;;9.40;;
23718;SDS011;43322;52.230;5.702;2023-04-01T03:34:38;11.00;;;9.60;;
23718;SDS011;43322;52.230;5.702;2023-04-01T03:37:05;10.55;;;9.07;;
23718;SDS011;43322;52.230;5.702;2023-04-01T03:39:31;10.50;;;9.50;;
23718;SDS011;43322;52.230;5.702;2023-04-01T03:41:58;12.13;;;10.35;;
23718;SDS011;43322;52.230;5.702;2023-04-01T03:44:25;11.98;;;10.13;;
23718;SDS011;43322;52.230;5.702;2023-04-01T03:46:52;11.73;;;10.00;;
23718;SDS011;43322;52.230;5.702;2023-04-01T03:49:20;13.73;;;10.55;;
23718;SDS011;43322;52.230;5.702;2023-04-01T03:51:47;10.88;;;9.88;;
23718;SDS011;43322;52.230;5.702;2023-04-01T03:54:13;10.25;;;9.15;;
23718;SDS011;43322;52.230;5.702;2023-04-01T03:56:42;10.20;;;9.20;;
23718;SDS011;43322;52.230;5.702;2023-04-01T03:59:08;10.32;;;9.32;;
23718;SDS011;43322;52.230;5.702;2023-04-01T04:01:35;11.93;;;10.02;;
23718;SDS011;43322;52.230;5.702;2023-04-01T04:04:02;11.15;;;9.10;;
23718;SDS011;43322;52.230;5.702;2023-04-01T04:06:31;9.30;;;8.50;;
23718;SDS011;43322;52.230;5.702;2023-04-01T04:08:59;11.70;;;10.50;;
23718;SDS011;43322;52.230;5.702;2023-04-01T04:11:25;10.40;;;9.50;;
23718;SDS011;43322;52.230;5.702;2023-04-01T04:13:52;11.60;;;9.95;;
23718;SDS011;43322;52.230;5.702;2023-04-01T04:16:19;11.23;;;10.13;;
23718;SDS011;43322;52.230;5.702;2023-04-01T04:18:45;11.13;;;9.75;;
23718;SDS011;43322;52.230;5.702;2023-04-01T04:21:12;11.30;;;9.73;;
23718;SDS011;43322;52.230;5.702;2023-04-01T04:23:41;10.80;;;9.68;;
23718;SDS011;43322;52.230;5.702;2023-04-01T04:26:09;12.18;;;10.90;;
23718;SDS011;43322;52.230;5.702;2023-04-01T04:28:37;15.05;;;10.80;;
23718;SDS011;43322;52.230;5.702;2023-04-01T04:31:04;11.73;;;10.52;;
23718;SDS011;43322;52.230;5.702;2023-04-01T04:33:32;11.15;;;9.93;;
23718;SDS011;43322;52.230;5.702;2023-04-01T04:36:00;10.85;;;9.60;;
23718;SDS011;43322;52.230;5.702;2023-04-01T04:38:27;11.75;;;10.43;;
23718;SDS011;43322;52.230;5.702;2023-04-01T04:40:56;11.40;;;10.30;;
23718;SDS011;43322;52.230;5.702;2023-04-01T04:43:22;12.95;;;10.15;;
23718;SDS011;43322;52.230;5.702;2023-04-01T04:45:49;11.60;;;9.70;;
23718;SDS011;43322;52.230;5.702;2023-04-01T04:48:16;11.35;;;9.65;;
23718;SDS011;43322;52.230;5.702;2023-04-01T04:50:45;10.57;;;9.43;;
23718;SDS011;43322;52.230;5.702;2023-04-01T04:53:13;10.68;;;8.43;;
23718;SDS011;43322;52.230;5.702;2023-04-01T04:55:44;11.05;;;9.07;;
23718;SDS011;43322;52.230;5.702;2023-04-01T04:58:13;13.30;;;10.10;;
23718;SDS011;43322;52.230;5.702;2023-04-01T05:00:40;13.88;;;9.88;;
23718;SDS011;43322;52.230;5.702;2023-04-01T05:03:07;13.38;;;9.90;;
23718;SDS011;43322;52.230;5.702;2023-04-01T05:05:34;15.32;;;9.77;;
23718;SDS011;43322;52.230;5.702;2023-04-01T05:08:00;14.20;;;10.65;;
23718;SDS011;43322;52.230;5.702;2023-04-01T05:10:27;17.50;;;10.32;;
23718;SDS011;43322;52.230;5.702;2023-04-01T05:12:55;13.70;;;10.10;;
23718;SDS011;43322;52.230;5.702;2023-04-01T05:15:24;13.20;;;9.48;;
23718;SDS011;43322;52.230;5.702;2023-04-01T05:17:50;11.52;;;8.75;;
23718;SDS011;43322;52.230;5.702;2023-04-01T05:20:17;18.38;;;10.48;;
23718;SDS011;43322;52.230;5.702;2023-04-01T05:22:44;13.15;;;9.98;;
23718;SDS011;43322;52.230;5.702;2023-04-01T05:25:10;16.08;;;10.13;;
23718;SDS011;43322;52.230;5.702;2023-04-01T05:27:37;13.88;;;10.55;;
23718;SDS011;43322;52.230;5.702;2023-04-01T05:30:05;13.90;;;10.00;;
23718;SDS011;43322;52.230;5.702;2023-04-01T05:32:34;14.93;;;10.10;;
23718;SDS011;43322;52.230;5.702;2023-04-01T05:35:00;17.55;;;10.25;;
23718;SDS011;43322;52.230;5.702;2023-04-01T05:37:27;13.93;;;9.48;;
23718;SDS011;43322;52.230;5.702;2023-04-01T05:39:54;12.65;;;9.35;;
23718;SDS011;43322;52.230;5.702;2023-04-01T05:42:20;13.95;;;10.25;;
23718;SDS011;43322;52.230;5.702;2023-04-01T05:44:47;16.02;;;10.00;;
23718;SDS011;43322;52.230;5.702;2023-04-01T05:47:14;16.67;;;10.68;;
23718;SDS011;43322;52.230;5.702;2023-04-01T05:49:42;18.15;;;10.95;;
23718;SDS011;43322;52.230;5.702;2023-04-01T05:52:08;19.67;;;10.85;;
23718;SDS011;43322;52.230;5.702;2023-04-01T05:54:35;25.27;;;11.90;;
23718;SDS011;43322;52.230;5.702;2023-04-01T05:57:02;15.95;;;10.32;;
23718;SDS011;43322;52.230;5.702;2023-04-01T05:59:29;21.95;;;11.88;;
23718;SDS011;43322;52.230;5.702;2023-04-01T06:01:57;19.65;;;10.80;;
23718;SDS011;43322;52.230;5.702;2023-04-01T06:04:23;18.15;;;10.73;;
23718;SDS011;43322;52.230;5.702;2023-04-01T06:06:52;22.13;;;11.32;;
23718;SDS011;43322;52.230;5.702;2023-04-01T06:09:19;18.67;;;10.85;;
23718;SDS011;43322;52.230;5.702;2023-04-01T06:14:46;27.17;;;12.45;;
23718;SDS011;43322;52.230;5.702;2023-04-01T06:17:19;23.73;;;12.05;;
23718;SDS011;43322;52.230;5.702;2023-04-01T06:19:54;24.85;;;12.23;;
23718;SDS011;43322;52.230;5.702;2023-04-01T06:36:06;19.73;;;10.30;;
23718;SDS011;43322;52.230;5.702;2023-04-01T06:38:44;22.67;;;11.75;;
23718;SDS011;43322;52.230;5.702;2023-04-01T06:41:33;24.00;;;11.63;;
23718;SDS011;43322;52.230;5.702;2023-04-01T06:44:23;22.92;;;11.18;;
23718;SDS011;43322;52.230;5.702;2023-04-01T06:46:59;24.63;;;11.15;;
23718;SDS011;43322;52.230;5.702;2023-04-01T06:49:33;22.48;;;10.32;;
23718;SDS011;43322;52.230;5.702;2023-04-01T06:52:13;21.35;;;10.02;;
23718;SDS011;43322;52.230;5.702;2023-04-01T06:54:50;21.73;;;10.13;;
23718;SDS011;43322;52.230;5.702;2023-04-01T06:57:28;23.90;;;11.07;;
23718;SDS011;43322;52.230;5.702;2023-04-01T06:59:59;20.88;;;9.95;;
23718;SDS011;43322;52.230;5.702;2023-04-01T07:02:29;24.13;;;10.55;;
23718;SDS011;43322;52.230;5.702;2023-04-01T07:05:02;20.75;;;10.02;;
23718;SDS011;43322;52.230;5.702;2023-04-01T07:07:33;21.45;;;9.75;;
23718;SDS011;43322;52.230;5.702;2023-04-01T07:10:05;19.08;;;9.13;;
23718;SDS011;43322;52.230;5.702;2023-04-01T07:12:40;18.73;;;8.82;;
23718;SDS011;43322;52.230;5.702;2023-04-01T07:15:14;18.25;;;9.15;;
23718;SDS011;43322;52.230;5.702;2023-04-01T07:17:45;17.08;;;8.55;;
23718;SDS011;43322;52.230;5.702;2023-04-01T07:20:16;13.65;;;7.25;;
23718;SDS011;43322;52.230;5.702;2023-04-01T07:22:47;13.50;;;7.35;;
23718;SDS011;43322;52.230;5.702;2023-04-01T07:25:16;11.13;;;6.60;;
23718;SDS011;43322;52.230;5.702;2023-04-01T07:27:45;10.52;;;6.20;;
23718;SDS011;43322;52.230;5.702;2023-04-01T07:30:13;7.35;;;5.50;;
23718;SDS011;43322;52.230;5.702;2023-04-01T07:32:44;5.65;;;5.05;;
23718;SDS011;43322;52.230;5.702;2023-04-01T07:35:17;7.20;;;5.00;;
23718;SDS011;43322;52.230;5.702;2023-04-01T07:37:58;6.03;;;4.28;;
23718;SDS011;43322;52.230;5.702;2023-04-01T07:40:36;4.05;;;3.65;;
23718;SDS011;43322;52.230;5.702;2023-04-01T07:43:20;3.85;;;2.70;;
23718;SDS011;43322;52.230;5.702;2023-04-01T07:46:10;2.10;;;2.00;;
23718;SDS011;43322;52.230;5.702;2023-04-01T07:48:49;2.28;;;2.10;;
23718;SDS011;43322;52.230;5.702;2023-04-01T07:51:21;2.47;;;2.22;;
23718;SDS011;43322;52.230;5.702;2023-04-01T07:54:00;1.63;;;1.52;;
23718;SDS011;43322;52.230;5.702;2023-04-01T07:56:34;1.98;;;1.60;;
23718;SDS011;43322;52.230;5.702;2023-04-01T07:59:07;1.60;;;1.50;;
23718;SDS011;43322;52.230;5.702;2023-04-01T08:01:43;1.50;;;1.40;;
23718;SDS011;43322;52.230;5.702;2023-04-01T08:07:10;1.33;;;1.23;;
23718;SDS011;43322;52.230;5.702;2023-04-01T08:09:44;2.03;;;1.45;;
23718;SDS011;43322;52.230;5.702;2023-04-01T08:12:21;1.38;;;1.35;;
23718;SDS011;43322;52.230;5.702;2023-04-01T08:15:02;2.28;;;1.27;;
23718;SDS011;43322;52.230;5.702;2023-04-01T08:17:38;1.42;;;1.33;;
23718;SDS011;43322;52.230;5.702;2023-04-01T08:20:14;1.45;;;1.35;;
23718;SDS011;43322;52.230;5.702;2023-04-01T08:22:50;1.55;;;1.45;;
23718;SDS011;43322;52.230;5.702;2023-04-01T08:25:25;1.40;;;1.40;;
23718;SDS011;43322;52.230;5.702;2023-04-01T08:27:55;1.50;;;1.40;;
23718;SDS011;43322;52.230;5.702;2023-04-01T08:30:25;1.80;;;1.70;;
23718;SDS011;43322;52.230;5.702;2023-04-01T08:32:56;1.63;;;1.52;;
23718;SDS011;43322;52.230;5.702;2023-04-01T08:35:28;1.70;;;1.60;;
23718;SDS011;43322;52.230;5.702;2023-04-01T08:38:01;1.80;;;1.70;;
23718;SDS011;43322;52.230;5.702;2023-04-01T08:43:24;1.90;;;1.80;;
23718;SDS011;43322;52.230;5.702;2023-04-01T08:46:07;1.90;;;1.80;;
23718;SDS011;43322;52.230;5.702;2023-04-01T08:48:48;2.17;;;2.08;;
23718;SDS011;43322;52.230;5.702;2023-04-01T08:51:36;2.17;;;2.08;;
23718;SDS011;43322;52.230;5.702;2023-04-01T08:54:40;2.45;;;2.35;;
23718;SDS011;43322;52.230;5.702;2023-04-01T08:57:25;2.42;;;2.33;;
23718;SDS011;43322;52.230;5.702;2023-04-01T09:00:07;2.63;;;2.53;;
23718;SDS011;43322;52.230;5.702;2023-04-01T09:02:55;3.03;;;2.85;;
23718;SDS011;43322;52.230;5.702;2023-04-01T09:05:52;3.35;;;3.15;;
23718;SDS011;43322;52.230;5.702;2023-04-01T09:08:41;3.28;;;2.97;;
23718;SDS011;43322;52.230;5.702;2023-04-01T09:11:22;3.58;;;3.28;;
23718;SDS011;43322;52.230;5.702;2023-04-01T09:17:07;3.90;;;3.60;;
23718;SDS011;43322;52.230;5.702;2023-04-01T09:19:54;3.53;;;3.00;;
23718;SDS011;43322;52.230;5.702;2023-04-01T09:22:41;3.42;;;3.22;;
23718;SDS011;43322;52.230;5.702;2023-04-01T09:25:27;3.35;;;3.15;;
23718;SDS011;43322;52.230;5.702;2023-04-01T09:28:02;3.53;;;3.33;;
23718;SDS011;43322;52.230;5.702;2023-04-01T09:30:43;3.83;;;3.53;;
23718;SDS011;43322;52.230;5.702;2023-04-01T09:36:44;3.45;;;2.47;;
23718;SDS011;43322;52.230;5.702;2023-04-01T09:42:14;2.50;;;2.40;;
23718;SDS011;43322;52.230;5.702;2023-04-01T09:44:57;2.20;;;2.10;;
23718;SDS011;43322;52.230;5.702;2023-04-01T09:47:31;2.97;;;2.88;;
23718;SDS011;43322;52.230;5.702;2023-04-01T09:50:14;3.03;;;2.83;;
23718;SDS011;43322;52.230;5.702;2023-04-01T09:52:54;3.08;;;2.97;;
23718;SDS011;43322;52.230;5.702;2023-04-01T09:58:50;3.22;;;2.90;;
23718;SDS011;43322;52.230;5.702;2023-04-01T10:01:45;2.60;;;2.50;;
23718;SDS011;43322;52.230;5.702;2023-04-01T10:04:42;2.40;;;2.30;;
23718;SDS011;43322;52.230;5.702;2023-04-01T10:11:01;2.00;;;1.90;;
23718;SDS011;43322;52.230;5.702;2023-04-01T10:19:52;1.88;;;1.77;;
23718;SDS011;43322;52.230;5.702;2023-04-01T10:28:54;1.77;;;1.67;;
23718;SDS011;43322;52.230;5.702;2023-04-01T10:31:58;1.80;;;1.80;;
23718;SDS011;43322;52.230;5.702;2023-04-01T10:38:06;2.08;;;1.98;;
23718;SDS011;43322;52.230;5.702;2023-04-01T10:44:29;1.73;;;1.63;;
23718;SDS011;43322;52.230;5.702;2023-04-01T10:47:25;1.50;;;1.50;;
23718;SDS011;43322;52.230;5.702;2023-04-01T10:53:14;1.98;;;1.88;;
23718;SDS011;43322;52.230;5.702;2023-04-01T10:59:02;2.00;;;1.90;;
23718;SDS011;43322;52.230;5.702;2023-04-01T11:04:55;2.58;;;2.47;;
23718;SDS011;43322;52.230;5.702;2023-04-01T11:13:52;2.88;;;2.45;;
23718;SDS011;43322;52.230;5.702;2023-04-01T11:16:47;2.13;;;2.03;;
23718;SDS011;43322;52.230;5.702;2023-04-01T11:19:36;2.90;;;2.80;;
23718;SDS011;43322;52.230;5.702;2023-04-01T11:22:43;3.03;;;2.83;;
23718;SDS011;43322;52.230;5.702;2023-04-01T11:25:23;2.63;;;2.53;;
23718;SDS011;43322;52.230;5.702;2023-04-01T11:28:23;2.65;;;2.55;;
23718;SDS011;43322;52.230;5.702;2023-04-01T11:31:11;2.70;;;2.50;;
23718;SDS011;43322;52.230;5.702;2023-04-01T11:33:53;2.53;;;2.42;;
23718;SDS011;43322;52.230;5.702;2023-04-01T11:36:26;3.05;;;2.85;;
23718;SDS011;43322;52.230;5.702;2023-04-01T11:39:05;3.13;;;2.92;;
23718;SDS011;43322;52.230;5.702;2023-04-01T11:41:46;3.22;;;3.08;;
23718;SDS011;43322;52.230;5.702;2023-04-01T11:44:22;3.80;;;3.60;;
23718;SDS011;43322;52.230;5.702;2023-04-01T11:49:51;3.40;;;3.30;;
23718;SDS011;43322;52.230;5.702;2023-04-01T11:52:33;3.03;;;2.92;;
23718;SDS011;43322;52.230;5.702;2023-04-01T11:55:15;2.92;;;2.83;;
23718;SDS011;43322;52.230;5.702;2023-04-01T11:58:02;3.85;;;3.50;;
23718;SDS011;43322;52.230;5.702;2023-04-01T12:01:08;3.22;;;3.10;;
23718;SDS011;43322;52.230;5.702;2023-04-01T12:06:58;4.32;;;3.50;;
23718;SDS011;43322;52.230;5.702;2023-04-01T12:09:33;3.30;;;3.20;;
23718;SDS011;43322;52.230;5.702;2023-04-01T12:12:10;3.47;;;3.28;;
23718;SDS011;43322;52.230;5.702;2023-04-01T12:14:44;5.60;;;3.58;;
23718;SDS011;43322;52.230;5.702;2023-04-01T12:17:26;3.70;;;3.40;;
23718;SDS011;43322;52.230;5.702;2023-04-01T12:19:58;3.53;;;3.28;;
23718;SDS011;43322;52.230;5.702;2023-04-01T12:22:43;3.60;;;3.30;;
23718;SDS011;43322;52.230;5.702;2023-04-01T12:25:18;3.97;;;3.78;;
23718;SDS011;43322;52.230;5.702;2023-04-01T12:27:53;4.40;;;3.58;;
23718;SDS011;43322;52.230;5.702;2023-04-01T12:30:37;7.20;;;4.25;;
23718;SDS011;43322;52.230;5.702;2023-04-01T12:36:20;3.85;;;3.65;;
23718;SDS011;43322;52.230;5.702;2023-04-01T12:39:03;4.28;;;3.63;;
23718;SDS011;43322;52.230;5.702;2023-04-01T12:41:47;3.70;;;3.50;;
23718;SDS011;43322;52.230;5.702;2023-04-01T12:47:21;3.13;;;3.03;;
23718;SDS011;43322;52.230;5.702;2023-04-01T12:50:16;3.42;;;3.17;;
23718;SDS011;43322;52.230;5.702;2023-04-01T12:52:57;3.72;;;3.42;;
23718;SDS011;43322;52.230;5.702;2023-04-01T12:55:37;3.63;;;3.42;;
23718;SDS011;43322;52.230;5.702;2023-04-01T12:58:18;4.20;;;3.72;;
23718;SDS011;43322;52.230;5.702;2023-04-01T13:01:16;5.18;;;3.35;;
23718;SDS011;43322;52.230;5.702;2023-04-01T13:03:56;4.55;;;4.15;;
23718;SDS011;43322;52.230;5.702;2023-04-01T13:06:54;12.18;;;5.25;;
23718;SDS011;43322;52.230;5.702;2023-04-01T13:09:38;9.90;;;4.80;;
23718;SDS011;43322;52.230;5.702;2023-04-01T13:12:23;3.63;;;3.42;;
23718;SDS011;43322;52.230;5.702;2023-04-01T13:15:05;3.17;;;2.97;;
23718;SDS011;43322;52.230;5.702;2023-04-01T13:17:44;4.03;;;3.83;;
23718;SDS011;43322;52.230;5.702;2023-04-01T13:20:20;3.75;;;3.45;;
23718;SDS011;43322;52.230;5.702;2023-04-01T13:22:59;4.00;;;3.70;;
23718;SDS011;43322;52.230;5.702;2023-04-01T13:25:37;4.82;;;4.53;;
23718;SDS011;43322;52.230;5.702;2023-04-01T13:28:11;4.43;;;4.03;;
23718;SDS011;43322;52.230;5.702;2023-04-01T13:30:43;4.28;;;3.97;;
23718;SDS011;43322;52.230;5.702;2023-04-01T13:33:17;4.68;;;4.38;;
23718;SDS011;43322;52.230;5.702;2023-04-01T13:35:54;4.85;;;3.88;;
23718;SDS011;43322;52.230;5.702;2023-04-01T13:38:43;4.82;;;4.53;;
23718;SDS011;43322;52.230;5.702;2023-04-01T13:41:29;5.68;;;4.75;;
23718;SDS011;43322;52.230;5.702;2023-04-01T13:44:09;4.70;;;4.40;;
23718;SDS011;43322;52.230;5.702;2023-04-01T13:46:42;6.28;;;5.35;;
23718;SDS011;43322;52.230;5.702;2023-04-01T13:49:28;6.40;;;5.88;;
23718;SDS011;43322;52.230;5.702;2023-04-01T13:52:17;6.30;;;5.82;;
23718;SDS011;43322;52.230;5.702;2023-04-01T13:55:10;6.38;;;5.88;;
23718;SDS011;43322;52.230;5.702;2023-04-01T13:57:56;6.55;;;6.05;;
23718;SDS011;43322;52.230;5.702;2023-04-01T14:00:38;6.22;;;5.63;;
23718;SDS011;43322;52.230;5.702;2023-04-01T14:03:15;6.00;;;5.55;;
23718;SDS011;43322;52.230;5.702;2023-04-01T14:06:27;6.65;;;5.43;;
23718;SDS011;43322;52.230;5.702;2023-04-01T14:09:11;6.18;;;5.72;;
23718;SDS011;43322;52.230;5.702;2023-04-01T14:11:53;5.88;;;5.50;;
23718;SDS011;43322;52.230;5.702;2023-04-01T14:14:33;5.80;;;5.43;;
23718;SDS011;43322;52.230;5.702;2023-04-01T14:17:21;5.47;;;5.07;;
23718;SDS011;43322;52.230;5.702;2023-04-01T14:20:17;5.60;;;5.30;;
23718;SDS011;43322;52.230;5.702;2023-04-01T14:23:05;6.13;;;5.75;;
23718;SDS011;43322;52.230;5.702;2023-04-01T14:25:51;5.88;;;5.47;;
23718;SDS011;43322;52.230;5.702;2023-04-01T14:28:30;6.15;;;5.75;;
23718;SDS011;43322;52.230;5.702;2023-04-01T14:31:09;6.30;;;5.90;;
23718;SDS011;43322;52.230;5.702;2023-04-01T14:33:51;7.10;;;6.40;;
23718;SDS011;43322;52.230;5.702;2023-04-01T14:36:37;6.63;;;6.13;;
23718;SDS011;43322;52.230;5.702;2023-04-01T14:39:27;6.38;;;6.00;;
23718;SDS011;43322;52.230;5.702;2023-04-01T14:42:06;6.35;;;5.85;;
23718;SDS011;43322;52.230;5.702;2023-04-01T14:47:46;6.40;;;6.00;;
23718;SDS011;43322;52.230;5.702;2023-04-01T14:50:17;6.20;;;5.80;;
23718;SDS011;43322;52.230;5.702;2023-04-01T14:52:54;6.90;;;6.32;;
23718;SDS011;43322;52.230;5.702;2023-04-01T14:55:27;6.18;;;5.78;;
23718;SDS011;43322;52.230;5.702;2023-04-01T14:57:59;5.97;;;5.57;;
23718;SDS011;43322;52.230;5.702;2023-04-01T15:00:41;5.70;;;5.40;;
23718;SDS011;43322;52.230;5.702;2023-04-01T15:03:22;4.78;;;4.47;;
23718;SDS011;43322;52.230;5.702;2023-04-01T15:05:55;5.15;;;4.85;;
23718;SDS011;43322;52.230;5.702;2023-04-01T15:08:27;5.07;;;4.78;;
23718;SDS011;43322;52.230;5.702;2023-04-01T15:13:53;3.97;;;3.78;;
23718;SDS011;43322;52.230;5.702;2023-04-01T15:16:50;5.07;;;4.82;;
23718;SDS011;43322;52.230;5.702;2023-04-01T15:19:31;5.00;;;4.70;;
23718;SDS011;43322;52.230;5.702;2023-04-01T15:22:27;4.50;;;4.30;;
23718;SDS011;43322;52.230;5.702;2023-04-01T15:25:17;4.72;;;4.53;;
23718;SDS011;43322;52.230;5.702;2023-04-01T15:27:54;4.95;;;4.60;;
23718;SDS011;43322;52.230;5.702;2023-04-01T15:30:29;4.47;;;4.28;;
23718;SDS011;43322;52.230;5.702;2023-04-01T15:33:06;5.10;;;4.70;;
23718;SDS011;43322;52.230;5.702;2023-04-01T15:35:47;4.22;;;4.03;;
23718;SDS011;43322;52.230;5.702;2023-04-01T15:38:26;4.93;;;4.63;;
23718;SDS011;43322;52.230;5.702;2023-04-01T15:41:01;4.93;;;4.47;;
23718;SDS011;43322;52.230;5.702;2023-04-01T15:43:36;5.00;;;4.70;;
23718;SDS011;43322;52.230;5.702;2023-04-01T15:46:09;4.30;;;4.10;;
23718;SDS011;43322;52.230;5.702;2023-04-01T15:48:56;5.28;;;4.50;;
23718;SDS011;43322;52.230;5.702;2023-04-01T15:55:01;4.93;;;4.63;;
23718;SDS011;43322;52.230;5.702;2023-04-01T15:57:50;4.80;;;4.50;;
23718;SDS011;43322;52.230;5.702;2023-04-01T16:00:30;5.18;;;4.88;;
23718;SDS011;43322;52.230;5.702;2023-04-01T16:03:09;4.78;;;4.57;;
23718;SDS011;43322;52.230;5.702;2023-04-01T16:05:55;5.20;;;4.90;;
23718;SDS011;43322;52.230;5.702;2023-04-01T16:11:29;4.80;;;4.47;;
23718;SDS011;43322;52.230;5.702;2023-04-01T16:14:07;4.35;;;4.15;;
23718;SDS011;43322;52.230;5.702;2023-04-01T16:16:47;4.53;;;4.20;;
23718;SDS011;43322;52.230;5.702;2023-04-01T16:19:28;4.75;;;4.53;;
23718;SDS011;43322;52.230;5.702;2023-04-01T16:22:04;5.07;;;4.78;;
23718;SDS011;43322;52.230;5.702;2023-04-01T16:24:38;5.60;;;5.20;;
23718;SDS011;43322;52.230;5.702;2023-04-01T16:27:10;5.22;;;4.93;;
23718;SDS011;43322;52.230;5.702;2023-04-01T16:29:41;5.70;;;5.40;;
23718;SDS011;43322;52.230;5.702;2023-04-01T16:32:18;5.50;;;5.20;;
23718;SDS011;43322;52.230;5.702;2023-04-01T16:34:56;5.70;;;5.22;;
23718;SDS011;43322;52.230;5.702;2023-04-01T16:37:32;5.05;;;4.75;;
23718;SDS011;43322;52.230;5.702;2023-04-01T16:40:11;6.22;;;5.85;;
23718;SDS011;43322;52.230;5.702;2023-04-01T16:42:47;5.57;;;5.28;;
23718;SDS011;43322;52.230;5.702;2023-04-01T16:45:19;5.40;;;5.10;;
23718;SDS011;43322;52.230;5.702;2023-04-01T16:47:58;5.70;;;5.20;;
23718;SDS011;43322;52.230;5.702;2023-04-01T16:50:39;5.88;;;5.53;;
23718;SDS011;43322;52.230;5.702;2023-04-01T16:53:16;5.60;;;5.30;;
23718;SDS011;43322;52.230;5.702;2023-04-01T16:55:49;6.50;;;6.10;;
23718;SDS011;43322;52.230;5.702;2023-04-01T16:58:19;5.68;;;5.30;;
23718;SDS011;43322;52.230;5.702;2023-04-01T17:00:51;6.03;;;5.72;;
23718;SDS011;43322;52.230;5.702;2023-04-01T17:03:22;6.60;;;6.20;;
23718;SDS011;43322;52.230;5.702;2023-04-01T17:06:03;5.78;;;5.47;;
23718;SDS011;43322;52.230;5.702;2023-04-01T17:08:48;6.50;;;6.10;;
23718;SDS011;43322;52.230;5.702;2023-04-01T17:11:30;6.80;;;6.40;;